Terminal Aerodrome Forecast
Issued by NWS Sioux Falls, SD

Home | Current Version | Previous Version | Text Only | Print | Product List | Glossary On
Versions: 1 2 3 4 5 6 7 8 9 10 11 12
000
FTUS43 KFSD 122337
TAFSUX
TAF
KSUX 122337Z 1300/1324 18006KT P6SM FEW250
     FM130200 18006KT P6SM FEW250
     FM130500 18005KT P6SM FEW250
     FM130800 26010G18KT P6SM FEW250 WS015/30040KT
     FM131100 31020G32KT P6SM BKN200
     FM131600 33026G38KT P6SM BKN030=

USA.gov is the U.S. government's official web portal to all federal, state and local government web resources and services.